sensor_id;sensor_type;location;lat;lon;timestamp;P1;durP1;ratioP1;P2;durP2;ratioP2
18170;SDS011;9210;48.358;10.902;2022-11-15T00:00:28;16.73;;;9.40;;
18170;SDS011;9210;48.358;10.902;2022-11-15T00:03:15;16.30;;;9.10;;
18170;SDS011;9210;48.358;10.902;2022-11-15T00:06:04;17.00;;;8.90;;
18170;SDS011;9210;48.358;10.902;2022-11-15T00:08:51;16.00;;;9.43;;
18170;SDS011;9210;48.358;10.902;2022-11-15T00:11:38;18.60;;;9.43;;
18170;SDS011;9210;48.358;10.902;2022-11-15T00:14:25;16.67;;;9.47;;
18170;SDS011;9210;48.358;10.902;2022-11-15T00:17:12;16.70;;;9.60;;
18170;SDS011;9210;48.358;10.902;2022-11-15T00:19:59;15.40;;;8.53;;
18170;SDS011;9210;48.358;10.902;2022-11-15T00:22:48;18.40;;;9.30;;
18170;SDS011;9210;48.358;10.902;2022-11-15T00:25:34;19.57;;;10.20;;
18170;SDS011;9210;48.358;10.902;2022-11-15T00:28:21;16.03;;;9.27;;
18170;SDS011;9210;48.358;10.902;2022-11-15T00:31:09;13.50;;;7.87;;
18170;SDS011;9210;48.358;10.902;2022-11-15T00:33:57;14.83;;;8.93;;
18170;SDS011;9210;48.358;10.902;2022-11-15T00:36:44;14.17;;;8.23;;
18170;SDS011;9210;48.358;10.902;2022-11-15T00:39:33;15.00;;;9.07;;
18170;SDS011;9210;48.358;10.902;2022-11-15T00:42:20;14.13;;;8.43;;
18170;SDS011;9210;48.358;10.902;2022-11-15T00:45:07;13.87;;;8.10;;
18170;SDS011;9210;48.358;10.902;2022-11-15T00:47:55;15.53;;;9.43;;
18170;SDS011;9210;48.358;10.902;2022-11-15T00:50:42;19.23;;;9.03;;
18170;SDS011;9210;48.358;10.902;2022-11-15T00:53:29;16.83;;;7.80;;
18170;SDS011;9210;48.358;10.902;2022-11-15T00:56:18;16.47;;;8.83;;
18170;SDS011;9210;48.358;10.902;2022-11-15T00:59:05;13.53;;;7.93;;
18170;SDS011;9210;48.358;10.902;2022-11-15T01:01:52;13.63;;;8.33;;
18170;SDS011;9210;48.358;10.902;2022-11-15T01:04:39;17.03;;;8.20;;
18170;SDS011;9210;48.358;10.902;2022-11-15T01:07:26;13.47;;;7.50;;
18170;SDS011;9210;48.358;10.902;2022-11-15T01:10:13;12.43;;;7.63;;
18170;SDS011;9210;48.358;10.902;2022-11-15T01:13:01;14.30;;;7.73;;
18170;SDS011;9210;48.358;10.902;2022-11-15T01:15:49;11.63;;;7.30;;
18170;SDS011;9210;48.358;10.902;2022-11-15T01:18:36;12.10;;;6.57;;
18170;SDS011;9210;48.358;10.902;2022-11-15T01:21:23;12.83;;;6.90;;
18170;SDS011;9210;48.358;10.902;2022-11-15T01:24:10;12.23;;;7.37;;
18170;SDS011;9210;48.358;10.902;2022-11-15T01:26:58;12.33;;;7.23;;
18170;SDS011;9210;48.358;10.902;2022-11-15T01:29:46;11.10;;;6.50;;
18170;SDS011;9210;48.358;10.902;2022-11-15T01:32:33;12.50;;;7.50;;
18170;SDS011;9210;48.358;10.902;2022-11-15T01:35:20;14.40;;;7.33;;
18170;SDS011;9210;48.358;10.902;2022-11-15T01:38:07;12.70;;;7.23;;
18170;SDS011;9210;48.358;10.902;2022-11-15T01:40:55;13.87;;;6.90;;
18170;SDS011;9210;48.358;10.902;2022-11-15T01:43:42;12.93;;;7.20;;
18170;SDS011;9210;48.358;10.902;2022-11-15T01:46:30;14.13;;;8.13;;
18170;SDS011;9210;48.358;10.902;2022-11-15T01:49:19;14.00;;;7.60;;
18170;SDS011;9210;48.358;10.902;2022-11-15T01:52:07;13.70;;;7.80;;
18170;SDS011;9210;48.358;10.902;2022-11-15T01:54:56;12.97;;;7.93;;
18170;SDS011;9210;48.358;10.902;2022-11-15T01:57:45;15.17;;;8.73;;
18170;SDS011;9210;48.358;10.902;2022-11-15T02:00:33;12.80;;;7.37;;
18170;SDS011;9210;48.358;10.902;2022-11-15T02:03:22;15.47;;;7.13;;
18170;SDS011;9210;48.358;10.902;2022-11-15T02:06:12;11.83;;;7.23;;
18170;SDS011;9210;48.358;10.902;2022-11-15T02:08:59;11.33;;;7.10;;
18170;SDS011;9210;48.358;10.902;2022-11-15T02:11:47;14.70;;;8.10;;
18170;SDS011;9210;48.358;10.902;2022-11-15T02:14:35;14.00;;;7.80;;
18170;SDS011;9210;48.358;10.902;2022-11-15T02:17:26;12.07;;;7.53;;
18170;SDS011;9210;48.358;10.902;2022-11-15T02:26:37;14.00;;;7.90;;
18170;SDS011;9210;48.358;10.902;2022-11-15T02:29:32;12.67;;;7.30;;
18170;SDS011;9210;48.358;10.902;2022-11-15T02:32:27;15.30;;;8.80;;
18170;SDS011;9210;48.358;10.902;2022-11-15T02:35:21;13.07;;;7.80;;
18170;SDS011;9210;48.358;10.902;2022-11-15T02:38:15;15.60;;;8.60;;
18170;SDS011;9210;48.358;10.902;2022-11-15T02:41:04;14.63;;;7.87;;
18170;SDS011;9210;48.358;10.902;2022-11-15T02:43:53;13.87;;;7.50;;
18170;SDS011;9210;48.358;10.902;2022-11-15T02:46:43;12.33;;;8.07;;
18170;SDS011;9210;48.358;10.902;2022-11-15T02:49:47;16.90;;;9.40;;
18170;SDS011;9210;48.358;10.902;2022-11-15T02:52:34;14.57;;;8.00;;
18170;SDS011;9210;48.358;10.902;2022-11-15T02:55:26;13.50;;;7.40;;
18170;SDS011;9210;48.358;10.902;2022-11-15T02:58:26;12.40;;;7.70;;
18170;SDS011;9210;48.358;10.902;2022-11-15T03:01:20;11.50;;;7.47;;
18170;SDS011;9210;48.358;10.902;2022-11-15T03:04:13;12.87;;;7.23;;
18170;SDS011;9210;48.358;10.902;2022-11-15T03:07:04;15.00;;;7.73;;
18170;SDS011;9210;48.358;10.902;2022-11-15T03:09:55;15.83;;;8.20;;
18170;SDS011;9210;48.358;10.902;2022-11-15T03:12:44;12.97;;;7.57;;
18170;SDS011;9210;48.358;10.902;2022-11-15T03:15:34;12.80;;;7.20;;
18170;SDS011;9210;48.358;10.902;2022-11-15T03:18:25;14.07;;;7.80;;
18170;SDS011;9210;48.358;10.902;2022-11-15T03:21:15;13.20;;;8.00;;
18170;SDS011;9210;48.358;10.902;2022-11-15T03:24:05;12.23;;;7.57;;
18170;SDS011;9210;48.358;10.902;2022-11-15T03:26:52;11.13;;;6.97;;
18170;SDS011;9210;48.358;10.902;2022-11-15T03:29:41;14.10;;;7.73;;
18170;SDS011;9210;48.358;10.902;2022-11-15T03:32:30;13.90;;;7.43;;
18170;SDS011;9210;48.358;10.902;2022-11-15T03:35:20;13.23;;;7.23;;
18170;SDS011;9210;48.358;10.902;2022-11-15T03:38:09;13.63;;;7.93;;
18170;SDS011;9210;48.358;10.902;2022-11-15T03:41:03;14.53;;;8.70;;
18170;SDS011;9210;48.358;10.902;2022-11-15T03:43:52;16.93;;;9.37;;
18170;SDS011;9210;48.358;10.902;2022-11-15T03:46:43;17.30;;;8.60;;
18170;SDS011;9210;48.358;10.902;2022-11-15T03:49:33;14.97;;;8.17;;
18170;SDS011;9210;48.358;10.902;2022-11-15T03:52:20;11.73;;;7.47;;
18170;SDS011;9210;48.358;10.902;2022-11-15T03:55:10;14.63;;;6.77;;
18170;SDS011;9210;48.358;10.902;2022-11-15T03:57:59;14.50;;;7.90;;
18170;SDS011;9210;48.358;10.902;2022-11-15T04:00:46;11.67;;;7.20;;
18170;SDS011;9210;48.358;10.902;2022-11-15T04:03:33;14.60;;;8.60;;
18170;SDS011;9210;48.358;10.902;2022-11-15T04:06:20;18.03;;;8.70;;
18170;SDS011;9210;48.358;10.902;2022-11-15T04:09:10;13.40;;;7.03;;
18170;SDS011;9210;48.358;10.902;2022-11-15T04:11:57;12.97;;;7.50;;
18170;SDS011;9210;48.358;10.902;2022-11-15T04:14:46;12.80;;;7.57;;
18170;SDS011;9210;48.358;10.902;2022-11-15T04:17:52;15.23;;;7.93;;
18170;SDS011;9210;48.358;10.902;2022-11-15T04:20:39;12.10;;;6.87;;
18170;SDS011;9210;48.358;10.902;2022-11-15T04:23:44;13.23;;;7.07;;
18170;SDS011;9210;48.358;10.902;2022-11-15T04:26:51;14.57;;;8.53;;
18170;SDS011;9210;48.358;10.902;2022-11-15T04:29:38;14.57;;;7.70;;
18170;SDS011;9210;48.358;10.902;2022-11-15T04:32:26;12.77;;;7.23;;
18170;SDS011;9210;48.358;10.902;2022-11-15T04:35:13;12.87;;;7.50;;
18170;SDS011;9210;48.358;10.902;2022-11-15T04:38:01;16.30;;;7.80;;
18170;SDS011;9210;48.358;10.902;2022-11-15T04:40:48;17.30;;;8.80;;
18170;SDS011;9210;48.358;10.902;2022-11-15T04:43:35;15.23;;;7.83;;
18170;SDS011;9210;48.358;10.902;2022-11-15T04:46:22;16.37;;;7.80;;
18170;SDS011;9210;48.358;10.902;2022-11-15T04:49:11;16.13;;;7.27;;
18170;SDS011;9210;48.358;10.902;2022-11-15T04:51:58;17.23;;;8.30;;
18170;SDS011;9210;48.358;10.902;2022-11-15T04:54:45;12.73;;;7.03;;
18170;SDS011;9210;48.358;10.902;2022-11-15T04:57:32;12.27;;;6.93;;
18170;SDS011;9210;48.358;10.902;2022-11-15T05:00:19;12.07;;;7.20;;
18170;SDS011;9210;48.358;10.902;2022-11-15T05:03:08;13.63;;;7.90;;
18170;SDS011;9210;48.358;10.902;2022-11-15T05:06:15;18.37;;;8.77;;
18170;SDS011;9210;48.358;10.902;2022-11-15T05:09:03;15.17;;;7.77;;
18170;SDS011;9210;48.358;10.902;2022-11-15T05:11:50;15.50;;;8.23;;
18170;SDS011;9210;48.358;10.902;2022-11-15T05:14:37;10.77;;;6.83;;
18170;SDS011;9210;48.358;10.902;2022-11-15T05:17:24;15.53;;;8.77;;
18170;SDS011;9210;48.358;10.902;2022-11-15T05:20:12;15.97;;;8.47;;
18170;SDS011;9210;48.358;10.902;2022-11-15T05:23:00;19.57;;;7.43;;
18170;SDS011;9210;48.358;10.902;2022-11-15T05:25:47;12.67;;;8.27;;
18170;SDS011;9210;48.358;10.902;2022-11-15T05:28:34;12.10;;;7.40;;
18170;SDS011;9210;48.358;10.902;2022-11-15T05:31:22;12.07;;;7.07;;
18170;SDS011;9210;48.358;10.902;2022-11-15T05:34:09;14.57;;;7.63;;
18170;SDS011;9210;48.358;10.902;2022-11-15T05:36:56;12.30;;;7.23;;
18170;SDS011;9210;48.358;10.902;2022-11-15T05:39:45;13.13;;;8.10;;
18170;SDS011;9210;48.358;10.902;2022-11-15T05:42:32;11.50;;;6.97;;
18170;SDS011;9210;48.358;10.902;2022-11-15T05:45:18;14.73;;;7.13;;
18170;SDS011;9210;48.358;10.902;2022-11-15T05:48:10;15.77;;;6.90;;
18170;SDS011;9210;48.358;10.902;2022-11-15T05:50:58;10.97;;;6.83;;
18170;SDS011;9210;48.358;10.902;2022-11-15T05:53:46;14.40;;;8.50;;
18170;SDS011;9210;48.358;10.902;2022-11-15T05:56:34;16.20;;;8.20;;
18170;SDS011;9210;48.358;10.902;2022-11-15T05:59:21;10.83;;;6.50;;
18170;SDS011;9210;48.358;10.902;2022-11-15T06:02:08;11.73;;;6.27;;
18170;SDS011;9210;48.358;10.902;2022-11-15T06:04:56;12.23;;;6.60;;
18170;SDS011;9210;48.358;10.902;2022-11-15T06:07:42;12.37;;;7.00;;
18170;SDS011;9210;48.358;10.902;2022-11-15T06:10:29;14.60;;;7.17;;
18170;SDS011;9210;48.358;10.902;2022-11-15T06:13:18;13.13;;;7.97;;
18170;SDS011;9210;48.358;10.902;2022-11-15T06:16:05;11.83;;;6.90;;
18170;SDS011;9210;48.358;10.902;2022-11-15T06:18:52;12.50;;;7.13;;
18170;SDS011;9210;48.358;10.902;2022-11-15T06:21:39;12.53;;;7.50;;
18170;SDS011;9210;48.358;10.902;2022-11-15T06:24:27;14.40;;;8.13;;
18170;SDS011;9210;48.358;10.902;2022-11-15T06:27:14;18.13;;;9.10;;
18170;SDS011;9210;48.358;10.902;2022-11-15T06:30:03;18.77;;;9.37;;
18170;SDS011;9210;48.358;10.902;2022-11-15T06:32:50;19.10;;;9.43;;
18170;SDS011;9210;48.358;10.902;2022-11-15T06:35:37;20.20;;;9.57;;
18170;SDS011;9210;48.358;10.902;2022-11-15T06:38:24;22.63;;;8.63;;
18170;SDS011;9210;48.358;10.902;2022-11-15T06:41:12;14.83;;;8.30;;
18170;SDS011;9210;48.358;10.902;2022-11-15T06:43:59;17.67;;;8.53;;
18170;SDS011;9210;48.358;10.902;2022-11-15T06:46:48;19.27;;;9.20;;
18170;SDS011;9210;48.358;10.902;2022-11-15T06:49:35;18.73;;;9.03;;
18170;SDS011;9210;48.358;10.902;2022-11-15T06:52:22;14.13;;;8.40;;
18170;SDS011;9210;48.358;10.902;2022-11-15T06:55:10;16.57;;;8.53;;
18170;SDS011;9210;48.358;10.902;2022-11-15T06:57:57;13.87;;;7.83;;
18170;SDS011;9210;48.358;10.902;2022-11-15T07:00:44;13.90;;;7.67;;
18170;SDS011;9210;48.358;10.902;2022-11-15T07:03:33;16.87;;;7.47;;
18170;SDS011;9210;48.358;10.902;2022-11-15T07:06:21;18.23;;;8.20;;
18170;SDS011;9210;48.358;10.902;2022-11-15T07:09:08;16.40;;;8.30;;
18170;SDS011;9210;48.358;10.902;2022-11-15T07:11:56;12.70;;;7.70;;
18170;SDS011;9210;48.358;10.902;2022-11-15T07:14:50;12.17;;;7.10;;
18170;SDS011;9210;48.358;10.902;2022-11-15T07:17:37;14.33;;;7.80;;
18170;SDS011;9210;48.358;10.902;2022-11-15T07:20:26;13.90;;;7.40;;
18170;SDS011;9210;48.358;10.902;2022-11-15T07:23:12;13.37;;;6.83;;
18170;SDS011;9210;48.358;10.902;2022-11-15T07:26:00;12.10;;;6.13;;
18170;SDS011;9210;48.358;10.902;2022-11-15T07:28:47;11.43;;;5.37;;
18170;SDS011;9210;48.358;10.902;2022-11-15T07:31:34;12.03;;;5.30;;
18170;SDS011;9210;48.358;10.902;2022-11-15T07:34:21;13.67;;;5.40;;
18170;SDS011;9210;48.358;10.902;2022-11-15T07:37:10;11.53;;;5.80;;
18170;SDS011;9210;48.358;10.902;2022-11-15T07:39:57;11.77;;;5.27;;
18170;SDS011;9210;48.358;10.902;2022-11-15T07:42:47;9.90;;;4.87;;
18170;SDS011;9210;48.358;10.902;2022-11-15T07:45:41;9.57;;;5.20;;
18170;SDS011;9210;48.358;10.902;2022-11-15T07:48:29;9.00;;;5.50;;
18170;SDS011;9210;48.358;10.902;2022-11-15T07:51:28;8.53;;;5.80;;
18170;SDS011;9210;48.358;10.902;2022-11-15T07:54:16;9.47;;;5.90;;
18170;SDS011;9210;48.358;10.902;2022-11-15T07:57:04;12.70;;;6.23;;
18170;SDS011;9210;48.358;10.902;2022-11-15T07:59:52;10.10;;;6.50;;
18170;SDS011;9210;48.358;10.902;2022-11-15T08:02:39;12.73;;;6.73;;
18170;SDS011;9210;48.358;10.902;2022-11-15T08:05:27;20.83;;;10.33;;
18170;SDS011;9210;48.358;10.902;2022-11-15T08:08:14;25.37;;;12.37;;
18170;SDS011;9210;48.358;10.902;2022-11-15T08:11:02;17.47;;;9.17;;
18170;SDS011;9210;48.358;10.902;2022-11-15T08:13:50;15.13;;;7.20;;
18170;SDS011;9210;48.358;10.902;2022-11-15T08:16:36;9.50;;;5.70;;
18170;SDS011;9210;48.358;10.902;2022-11-15T08:19:24;10.90;;;6.90;;
18170;SDS011;9210;48.358;10.902;2022-11-15T08:22:11;11.80;;;6.93;;
18170;SDS011;9210;48.358;10.902;2022-11-15T08:24:58;16.47;;;7.47;;
18170;SDS011;9210;48.358;10.902;2022-11-15T08:27:46;18.60;;;6.93;;
18170;SDS011;9210;48.358;10.902;2022-11-15T08:30:34;11.07;;;6.50;;
18170;SDS011;9210;48.358;10.902;2022-11-15T08:33:22;12.80;;;6.57;;
18170;SDS011;9210;48.358;10.902;2022-11-15T08:36:11;10.97;;;6.10;;
18170;SDS011;9210;48.358;10.902;2022-11-15T08:38:59;10.90;;;6.43;;
18170;SDS011;9210;48.358;10.902;2022-11-15T08:41:46;8.13;;;5.37;;
18170;SDS011;9210;48.358;10.902;2022-11-15T08:44:35;8.23;;;5.47;;
18170;SDS011;9210;48.358;10.902;2022-11-15T08:47:24;11.47;;;5.87;;
18170;SDS011;9210;48.358;10.902;2022-11-15T08:50:12;8.33;;;5.73;;
18170;SDS011;9210;48.358;10.902;2022-11-15T08:53:03;9.63;;;5.90;;
18170;SDS011;9210;48.358;10.902;2022-11-15T08:55:50;7.57;;;5.00;;
18170;SDS011;9210;48.358;10.902;2022-11-15T08:58:37;8.57;;;5.70;;
18170;SDS011;9210;48.358;10.902;2022-11-15T09:01:26;9.10;;;4.93;;
18170;SDS011;9210;48.358;10.902;2022-11-15T09:04:13;8.00;;;4.70;;
18170;SDS011;9210;48.358;10.902;2022-11-15T09:07:00;8.30;;;4.87;;
18170;SDS011;9210;48.358;10.902;2022-11-15T09:09:47;7.73;;;5.27;;
18170;SDS011;9210;48.358;10.902;2022-11-15T09:12:34;8.50;;;4.47;;
18170;SDS011;9210;48.358;10.902;2022-11-15T09:15:21;9.20;;;5.20;;
18170;SDS011;9210;48.358;10.902;2022-11-15T09:18:10;7.43;;;4.57;;
18170;SDS011;9210;48.358;10.902;2022-11-15T09:20:57;8.77;;;5.30;;
18170;SDS011;9210;48.358;10.902;2022-11-15T09:23:44;9.63;;;5.40;;
18170;SDS011;9210;48.358;10.902;2022-11-15T09:26:31;7.27;;;4.40;;
18170;SDS011;9210;48.358;10.902;2022-11-15T09:29:18;7.20;;;4.87;;
18170;SDS011;9210;48.358;10.902;2022-11-15T09:32:05;9.17;;;4.60;;
18170;SDS011;9210;48.358;10.902;2022-11-15T09:34:54;6.73;;;4.50;;
18170;SDS011;9210;48.358;10.902;2022-11-15T09:37:40;7.00;;;4.07;;
18170;SDS011;9210;48.358;10.902;2022-11-15T09:40:29;7.37;;;4.73;;
18170;SDS011;9210;48.358;10.902;2022-11-15T09:43:28;7.30;;;4.10;;
18170;SDS011;9210;48.358;10.902;2022-11-15T09:46:19;7.20;;;4.47;;
18170;SDS011;9210;48.358;10.902;2022-11-15T09:49:08;8.80;;;4.40;;
18170;SDS011;9210;48.358;10.902;2022-11-15T09:51:53;6.83;;;4.30;;
18170;SDS011;9210;48.358;10.902;2022-11-15T09:54:25;6.07;;;4.07;;
18170;SDS011;9210;48.358;10.902;2022-11-15T09:57:16;6.93;;;4.43;;
18170;SDS011;9210;48.358;10.902;2022-11-15T09:59:51;6.03;;;3.87;;
18170;SDS011;9210;48.358;10.902;2022-11-15T10:02:42;8.83;;;4.33;;
18170;SDS011;9210;48.358;10.902;2022-11-15T10:05:16;6.53;;;4.00;;
18170;SDS011;9210;48.358;10.902;2022-11-15T10:07:48;6.33;;;4.00;;
18170;SDS011;9210;48.358;10.902;2022-11-15T10:10:20;6.17;;;3.90;;
18170;SDS011;9210;48.358;10.902;2022-11-15T10:12:51;8.13;;;4.70;;
18170;SDS011;9210;48.358;10.902;2022-11-15T10:15:20;8.53;;;4.40;;
18170;SDS011;9210;48.358;10.902;2022-11-15T10:17:54;7.10;;;4.33;;
18170;SDS011;9210;48.358;10.902;2022-11-15T10:20:24;7.93;;;4.50;;
18170;SDS011;9210;48.358;10.902;2022-11-15T10:22:55;8.63;;;4.13;;
18170;SDS011;9210;48.358;10.902;2022-11-15T10:25:25;8.20;;;4.70;;
18170;SDS011;9210;48.358;10.902;2022-11-15T10:27:55;7.03;;;4.10;;
18170;SDS011;9210;48.358;10.902;2022-11-15T10:30:28;6.63;;;4.10;;
18170;SDS011;9210;48.358;10.902;2022-11-15T10:32:58;6.00;;;3.97;;
18170;SDS011;9210;48.358;10.902;2022-11-15T10:35:37;6.17;;;3.67;;
18170;SDS011;9210;48.358;10.902;2022-11-15T10:38:07;6.43;;;4.13;;
18170;SDS011;9210;48.358;10.902;2022-11-15T10:40:36;6.13;;;4.10;;
18170;SDS011;9210;48.358;10.902;2022-11-15T10:43:10;6.17;;;4.33;;
18170;SDS011;9210;48.358;10.902;2022-11-15T10:45:41;7.87;;;4.73;;
18170;SDS011;9210;48.358;10.902;2022-11-15T10:48:25;7.27;;;4.60;;
18170;SDS011;9210;48.358;10.902;2022-11-15T10:50:54;8.03;;;4.30;;
18170;SDS011;9210;48.358;10.902;2022-11-15T10:53:32;10.43;;;4.67;;
18170;SDS011;9210;48.358;10.902;2022-11-15T10:56:03;8.07;;;4.50;;
18170;SDS011;9210;48.358;10.902;2022-11-15T10:58:33;8.93;;;4.80;;
18170;SDS011;9210;48.358;10.902;2022-11-15T11:01:10;7.83;;;4.50;;
18170;SDS011;9210;48.358;10.902;2022-11-15T11:03:39;8.03;;;4.13;;
18170;SDS011;9210;48.358;10.902;2022-11-15T11:06:09;5.63;;;3.97;;
18170;SDS011;9210;48.358;10.902;2022-11-15T11:08:39;10.40;;;4.07;;
18170;SDS011;9210;48.358;10.902;2022-11-15T11:11:08;9.47;;;4.17;;
18170;SDS011;9210;48.358;10.902;2022-11-15T11:13:37;5.90;;;3.50;;
18170;SDS011;9210;48.358;10.902;2022-11-15T11:19:06;6.40;;;3.50;;
18170;SDS011;9210;48.358;10.902;2022-11-15T11:21:38;8.60;;;3.37;;
18170;SDS011;9210;48.358;10.902;2022-11-15T11:24:13;6.03;;;3.47;;
18170;SDS011;9210;48.358;10.902;2022-11-15T11:26:45;5.10;;;3.20;;
18170;SDS011;9210;48.358;10.902;2022-11-15T11:29:26;6.33;;;4.00;;
18170;SDS011;9210;48.358;10.902;2022-11-15T11:31:59;5.87;;;3.90;;
18170;SDS011;9210;48.358;10.902;2022-11-15T11:34:34;6.13;;;3.80;;
18170;SDS011;9210;48.358;10.902;2022-11-15T11:37:09;9.40;;;4.37;;
18170;SDS011;9210;48.358;10.902;2022-11-15T11:39:44;7.90;;;5.00;;
18170;SDS011;9210;48.358;10.902;2022-11-15T11:42:17;8.77;;;4.57;;
18170;SDS011;9210;48.358;10.902;2022-11-15T11:45:00;7.87;;;4.50;;
18170;SDS011;9210;48.358;10.902;2022-11-15T11:47:35;8.33;;;4.60;;
18170;SDS011;9210;48.358;10.902;2022-11-15T11:50:10;6.80;;;4.10;;
18170;SDS011;9210;48.358;10.902;2022-11-15T11:52:43;8.20;;;4.23;;
18170;SDS011;9210;48.358;10.902;2022-11-15T11:55:14;8.93;;;4.73;;
18170;SDS011;9210;48.358;10.902;2022-11-15T11:57:45;7.27;;;4.10;;
18170;SDS011;9210;48.358;10.902;2022-11-15T12:00:17;8.00;;;4.03;;
18170;SDS011;9210;48.358;10.902;2022-11-15T12:02:47;6.73;;;3.63;;
18170;SDS011;9210;48.358;10.902;2022-11-15T12:05:17;6.47;;;3.37;;
18170;SDS011;9210;48.358;10.902;2022-11-15T12:07:48;6.63;;;3.97;;
18170;SDS011;9210;48.358;10.902;2022-11-15T12:10:20;7.23;;;3.73;;
18170;SDS011;9210;48.358;10.902;2022-11-15T12:12:53;4.37;;;3.33;;
18170;SDS011;9210;48.358;10.902;2022-11-15T12:15:23;7.03;;;3.50;;
18170;SDS011;9210;48.358;10.902;2022-11-15T12:17:53;5.57;;;3.50;;
18170;SDS011;9210;48.358;10.902;2022-11-15T12:20:23;6.00;;;3.20;;
18170;SDS011;9210;48.358;10.902;2022-11-15T12:22:54;5.53;;;3.53;;
18170;SDS011;9210;48.358;10.902;2022-11-15T12:25:29;8.40;;;3.60;;
18170;SDS011;9210;48.358;10.902;2022-11-15T12:28:03;5.97;;;3.57;;
18170;SDS011;9210;48.358;10.902;2022-11-15T12:30:40;8.40;;;4.10;;
18170;SDS011;9210;48.358;10.902;2022-11-15T12:35:57;7.97;;;3.43;;
18170;SDS011;9210;48.358;10.902;2022-11-15T12:41:14;6.03;;;3.53;;
18170;SDS011;9210;48.358;10.902;2022-11-15T12:43:43;5.63;;;3.40;;
18170;SDS011;9210;48.358;10.902;2022-11-15T12:46:13;4.07;;;2.90;;
18170;SDS011;9210;48.358;10.902;2022-11-15T12:48:49;5.23;;;3.30;;
18170;SDS011;9210;48.358;10.902;2022-11-15T12:51:19;4.20;;;3.03;;
18170;SDS011;9210;48.358;10.902;2022-11-15T12:53:48;4.73;;;3.20;;
18170;SDS011;9210;48.358;10.902;2022-11-15T12:56:21;4.83;;;3.30;;
18170;SDS011;9210;48.358;10.902;2022-11-15T12:58:54;6.53;;;3.80;;
18170;SDS011;9210;48.358;10.902;2022-11-15T13:04:14;9.33;;;4.47;;
18170;SDS011;9210;48.358;10.902;2022-11-15T13:06:50;8.37;;;4.30;;
18170;SDS011;9210;48.358;10.902;2022-11-15T13:12:11;6.90;;;4.30;;
18170;SDS011;9210;48.358;10.902;2022-11-15T13:14:42;8.63;;;4.43;;
18170;SDS011;9210;48.358;10.902;2022-11-15T13:17:24;7.17;;;3.80;;
18170;SDS011;9210;48.358;10.902;2022-11-15T13:19:55;9.03;;;3.87;;
18170;SDS011;9210;48.358;10.902;2022-11-15T13:22:26;7.53;;;4.10;;
18170;SDS011;9210;48.358;10.902;2022-11-15T13:25:16;7.00;;;4.10;;
18170;SDS011;9210;48.358;10.902;2022-11-15T13:27:47;8.07;;;4.37;;
18170;SDS011;9210;48.358;10.902;2022-11-15T13:30:19;9.37;;;4.67;;
18170;SDS011;9210;48.358;10.902;2022-11-15T13:32:48;7.37;;;4.17;;
18170;SDS011;9210;48.358;10.902;2022-11-15T13:35:20;9.50;;;4.20;;
18170;SDS011;9210;48.358;10.902;2022-11-15T13:37:49;6.70;;;4.20;;
18170;SDS011;9210;48.358;10.902;2022-11-15T13:40:20;6.60;;;3.83;;
18170;SDS011;9210;48.358;10.902;2022-11-15T13:42:50;6.43;;;4.20;;
18170;SDS011;9210;48.358;10.902;2022-11-15T13:45:19;9.60;;;4.37;;
18170;SDS011;9210;48.358;10.902;2022-11-15T13:47:51;5.43;;;4.20;;
18170;SDS011;9210;48.358;10.902;2022-11-15T13:50:20;9.63;;;4.87;;
18170;SDS011;9210;48.358;10.902;2022-11-15T13:52:50;9.30;;;4.87;;
18170;SDS011;9210;48.358;10.902;2022-11-15T13:55:19;6.60;;;4.60;;
18170;SDS011;9210;48.358;10.902;2022-11-15T13:57:49;7.80;;;5.00;;
18170;SDS011;9210;48.358;10.902;2022-11-15T14:00:25;6.43;;;4.50;;
18170;SDS011;9210;48.358;10.902;2022-11-15T14:02:54;9.33;;;4.70;;
18170;SDS011;9210;48.358;10.902;2022-11-15T14:05:23;7.10;;;4.83;;
18170;SDS011;9210;48.358;10.902;2022-11-15T14:07:53;8.57;;;5.00;;
18170;SDS011;9210;48.358;10.902;2022-11-15T14:10:27;8.60;;;4.90;;
18170;SDS011;9210;48.358;10.902;2022-11-15T14:12:57;10.53;;;5.03;;
18170;SDS011;9210;48.358;10.902;2022-11-15T14:15:29;9.23;;;5.10;;
18170;SDS011;9210;48.358;10.902;2022-11-15T14:17:58;9.30;;;4.90;;
18170;SDS011;9210;48.358;10.902;2022-11-15T14:20:30;8.70;;;5.17;;
18170;SDS011;9210;48.358;10.902;2022-11-15T14:22:59;9.47;;;5.60;;
18170;SDS011;9210;48.358;10.902;2022-11-15T14:25:28;9.47;;;4.43;;
18170;SDS011;9210;48.358;10.902;2022-11-15T14:28:14;6.53;;;4.50;;
18170;SDS011;9210;48.358;10.902;2022-11-15T14:30:44;11.93;;;4.50;;
18170;SDS011;9210;48.358;10.902;2022-11-15T14:33:21;6.23;;;4.03;;
18170;SDS011;9210;48.358;10.902;2022-11-15T14:35:49;6.60;;;3.67;;
18170;SDS011;9210;48.358;10.902;2022-11-15T14:38:18;7.40;;;4.27;;
18170;SDS011;9210;48.358;10.902;2022-11-15T14:40:47;7.37;;;4.33;;
18170;SDS011;9210;48.358;10.902;2022-11-15T14:43:15;6.30;;;3.63;;
18170;SDS011;9210;48.358;10.902;2022-11-15T14:45:45;6.90;;;4.00;;
18170;SDS011;9210;48.358;10.902;2022-11-15T14:48:13;7.87;;;3.60;;
18170;SDS011;9210;48.358;10.902;2022-11-15T14:50:42;7.37;;;3.80;;
18170;SDS011;9210;48.358;10.902;2022-11-15T14:53:12;7.63;;;4.17;;
18170;SDS011;9210;48.358;10.902;2022-11-15T14:55:41;7.07;;;3.67;;
18170;SDS011;9210;48.358;10.902;2022-11-15T14:58:10;6.13;;;3.47;;
18170;SDS011;9210;48.358;10.902;2022-11-15T15:00:40;5.63;;;3.60;;
18170;SDS011;9210;48.358;10.902;2022-11-15T15:03:10;6.30;;;3.50;;
18170;SDS011;9210;48.358;10.902;2022-11-15T15:05:39;5.43;;;3.40;;
18170;SDS011;9210;48.358;10.902;2022-11-15T15:08:08;5.50;;;3.50;;
18170;SDS011;9210;48.358;10.902;2022-11-15T15:10:38;5.53;;;3.50;;
18170;SDS011;9210;48.358;10.902;2022-11-15T15:13:10;6.80;;;3.43;;
18170;SDS011;9210;48.358;10.902;2022-11-15T15:15:44;6.93;;;3.83;;
18170;SDS011;9210;48.358;10.902;2022-11-15T15:18:14;5.80;;;3.33;;
18170;SDS011;9210;48.358;10.902;2022-11-15T15:20:43;7.27;;;3.60;;
18170;SDS011;9210;48.358;10.902;2022-11-15T15:23:15;6.87;;;3.90;;
18170;SDS011;9210;48.358;10.902;2022-11-15T15:25:45;5.57;;;3.87;;
18170;SDS011;9210;48.358;10.902;2022-11-15T15:28:15;6.83;;;3.83;;
18170;SDS011;9210;48.358;10.902;2022-11-15T15:30:43;8.50;;;3.73;;
18170;SDS011;9210;48.358;10.902;2022-11-15T15:33:11;9.30;;;3.93;;
18170;SDS011;9210;48.358;10.902;2022-11-15T15:35:41;7.03;;;4.03;;
18170;SDS011;9210;48.358;10.902;2022-11-15T15:38:10;12.63;;;5.40;;
18170;SDS011;9210;48.358;10.902;2022-11-15T15:40:39;9.90;;;4.67;;
18170;SDS011;9210;48.358;10.902;2022-11-15T15:43:08;9.77;;;4.50;;
18170;SDS011;9210;48.358;10.902;2022-11-15T15:45:36;11.47;;;5.10;;
18170;SDS011;9210;48.358;10.902;2022-11-15T15:48:05;10.30;;;4.67;;
18170;SDS011;9210;48.358;10.902;2022-11-15T15:50:34;9.93;;;5.03;;
18170;SDS011;9210;48.358;10.902;2022-11-15T15:53:04;11.07;;;5.50;;
18170;SDS011;9210;48.358;10.902;2022-11-15T15:55:34;11.13;;;4.73;;
18170;SDS011;9210;48.358;10.902;2022-11-15T15:58:02;9.57;;;4.80;;
18170;SDS011;9210;48.358;10.902;2022-11-15T16:00:31;12.77;;;5.60;;
18170;SDS011;9210;48.358;10.902;2022-11-15T16:03:00;12.50;;;5.87;;
18170;SDS011;9210;48.358;10.902;2022-11-15T16:05:28;10.10;;;5.23;;
18170;SDS011;9210;48.358;10.902;2022-11-15T16:07:57;13.17;;;5.20;;
18170;SDS011;9210;48.358;10.902;2022-11-15T16:10:27;15.27;;;5.77;;
18170;SDS011;9210;48.358;10.902;2022-11-15T16:12:56;10.67;;;4.93;;
18170;SDS011;9210;48.358;10.902;2022-11-15T16:15:25;11.37;;;5.07;;
18170;SDS011;9210;48.358;10.902;2022-11-15T16:17:55;10.67;;;5.03;;
18170;SDS011;9210;48.358;10.902;2022-11-15T16:20:29;13.90;;;5.30;;
18170;SDS011;9210;48.358;10.902;2022-11-15T16:22:58;12.47;;;5.33;;
18170;SDS011;9210;48.358;10.902;2022-11-15T16:25:37;11.10;;;5.30;;